Time;durP1;ratioP1;P1;durP2;ratioP2;P2;SDS_P1;SDS_P2;PMS_P1;PMS_P2;Temp;Humidity;BMP_temperature;BMP_pressure;BME280_temperature;BME280_humidity;BME280_pressure;Samples;Min_cycle;Max_cycle;Signal;HPM_P1;HPM_P2
2023/01/07 00:02:16;;;;;;;11.97;7.60;;;;;;;5.91;77.06;95615.31;5096844;28;20456;-90
2023/01/07 00:08:08;;;;;;;13.47;6.50;;;;;;;6.02;76.29;95614.72;5096530;28;20399;-90
2023/01/07 00:10:35;;;;;;;7.93;6.23;;;;;;;6.01;76.82;95613.88;5096674;28;20449;-90
2023/01/07 00:13:02;;;;;;;8.13;6.27;;;;;;;6.02;75.91;95602.53;5096673;28;20449;-89
2023/01/07 00:15:29;;;;;;;11.50;6.10;;;;;;;6.00;76.33;95614.81;5096142;28;20453;-89
2023/01/07 00:17:57;;;;;;;7.50;4.77;;;;;;;6.03;75.87;95614.63;5096178;28;20475;-90
2023/01/07 00:20:24;;;;;;;5.43;4.93;;;;;;;6.01;75.97;95613.03;5096102;28;20961;-88
2023/01/07 00:22:51;;;;;;;6.13;5.23;;;;;;;5.98;75.93;95619.25;5096041;28;20448;-88
2023/01/07 00:25:18;;;;;;;8.07;5.63;;;;;;;5.97;76.59;95616.75;5095854;28;20429;-89
2023/01/07 00:27:45;;;;;;;11.33;6.17;;;;;;;5.87;76.64;95621.59;5095955;28;20456;-89
2023/01/07 00:30:13;;;;;;;9.87;6.13;;;;;;;5.92;76.08;95609.19;5096481;28;20452;-90
2023/01/07 00:35:25;;;;;;;8.30;5.63;;;;;;;5.91;76.92;95610.13;5095251;28;20527;-90
2023/01/07 00:37:53;;;;;;;7.80;5.63;;;;;;;5.92;77.48;95617.00;5095919;28;20477;-90
2023/01/07 00:40:20;;;;;;;7.33;5.60;;;;;;;5.92;77.27;95609.19;5096312;28;20519;-89
2023/01/07 00:43:01;;;;;;;10.60;5.47;;;;;;;5.97;76.89;95620.19;5096128;28;20460;-89
2023/01/07 00:45:29;;;;;;;6.63;5.30;;;;;;;6.00;76.96;95627.84;5095837;28;20482;-90
2023/01/07 00:47:57;;;;;;;12.93;5.30;;;;;;;6.02;76.06;95623.38;5096031;28;20462;-89
2023/01/07 00:50:28;;;;;;;11.70;4.60;;;;;;;6.01;76.57;95621.69;5096093;28;20436;-89
2023/01/07 00:52:55;;;;;;;12.93;4.63;;;;;;;6.00;76.39;95627.00;5096173;28;20460;-89
2023/01/07 00:55:24;;;;;;;5.27;3.50;;;;;;;5.99;76.98;95620.94;5095131;28;21002;-88
2023/01/07 00:57:51;;;;;;;6.43;4.37;;;;;;;6.01;76.79;95623.47;5095476;28;20533;-88
2023/01/07 01:00:23;;;;;;;7.33;4.03;;;;;;;6.02;76.39;95632.97;5095818;28;20452;-89
2023/01/07 01:02:51;;;;;;;7.63;5.10;;;;;;;6.00;76.51;95640.84;5095575;28;20447;-89
2023/01/07 01:05:19;;;;;;;6.10;4.63;;;;;;;5.97;76.73;95635.81;5095645;28;20788;-89
2023/01/07 01:07:47;;;;;;;6.70;4.40;;;;;;;5.88;76.13;95636.31;5096356;28;20448;-89
2023/01/07 01:10:16;;;;;;;9.23;4.30;;;;;;;5.86;76.41;95648.56;5095850;28;20447;-88
2023/01/07 01:12:44;;;;;;;5.00;4.43;;;;;;;5.81;76.88;95645.38;5095410;28;20425;-89
2023/01/07 01:15:12;;;;;;;7.20;4.17;;;;;;;5.81;77.23;95646.22;5095415;28;20452;-89
2023/01/07 01:21:03;;;;;;;5.20;3.87;;;;;;;5.73;77.79;95637.13;5094089;28;20481;-89
2023/01/07 01:23:32;;;;;;;6.03;3.87;;;;;;;5.72;78.08;95638.88;5095427;28;20949;-88
2023/01/07 01:26:03;;;;;;;5.60;4.83;;;;;;;5.71;77.13;95636.34;5095179;28;20448;-89
2023/01/07 01:28:30;;;;;;;6.30;4.83;;;;;;;5.68;77.17;95637.38;5095085;28;20551;-89
2023/01/07 01:30:57;;;;;;;5.50;3.93;;;;;;;5.70;77.51;95637.28;5095084;28;20456;-88
2023/01/07 01:33:24;;;;;;;5.73;3.70;;;;;;;5.72;77.68;95641.47;5095081;28;20463;-88
2023/01/07 01:35:51;;;;;;;6.33;4.20;;;;;;;5.74;77.08;95641.41;5094335;28;20468;-88
2023/01/07 01:38:18;;;;;;;7.57;4.40;;;;;;;5.74;77.74;95633.59;5094822;28;20487;-88
2023/01/07 01:40:46;;;;;;;5.27;4.20;;;;;;;5.75;77.70;95640.47;5094453;28;20459;-89
2023/01/07 01:43:32;;;;;;;10.83;4.70;;;;;;;5.72;77.58;95638.88;5094984;28;20448;-88
2023/01/07 01:46:02;;;;;;;6.53;5.10;;;;;;;5.67;77.53;95638.28;5094594;28;20455;-89
2023/01/07 01:48:30;;;;;;;11.77;4.80;;;;;;;5.61;78.62;95638.63;5095053;28;20460;-89
2023/01/07 01:50:57;;;;;;;8.33;4.40;;;;;;;5.58;77.78;95636.19;5094660;28;20858;-88
2023/01/07 01:53:28;;;;;;;8.67;5.10;;;;;;;5.54;78.23;95627.69;5094777;28;20918;-88
2023/01/07 01:59:22;;;;;;;6.70;4.60;;;;;;;5.36;79.73;95636.47;5076556;28;20479;-87
2023/01/07 02:01:49;;;;;;;4.87;4.27;;;;;;;5.33;80.20;95626.22;5094517;28;20497;-89
2023/01/07 02:04:20;;;;;;;8.37;4.80;;;;;;;5.28;80.02;95623.03;5094342;28;20439;-88
2023/01/07 02:06:54;;;;;;;7.43;4.43;;;;;;;5.26;80.03;95623.13;5094589;28;20830;-89
2023/01/07 02:09:21;;;;;;;6.97;4.80;;;;;;;5.26;80.47;95620.50;5094893;28;20451;-88
2023/01/07 02:11:58;;;;;;;6.17;4.07;;;;;;;5.29;80.53;95622.09;5094689;28;20451;-89
2023/01/07 02:14:48;;;;;;;5.67;4.40;;;;;;;5.34;80.54;95619.25;5094797;28;20455;-86
2023/01/07 02:17:38;;;;;;;6.13;4.60;;;;;;;5.33;79.87;95618.41;5094984;28;20812;-89
2023/01/07 02:20:24;;;;;;;6.30;4.30;;;;;;;5.28;79.81;95625.63;5094472;28;20455;-88
2023/01/07 02:23:27;;;;;;;5.87;5.20;;;;;;;5.23;80.92;95617.22;5094588;28;20447;-88
2023/01/07 02:26:44;;;;;;;6.60;4.40;;;;;;;5.21;80.53;95613.88;5012305;28;20439;-89
2023/01/07 02:29:49;;;;;;;7.70;5.27;;;;;;;5.16;79.92;95595.88;5012272;28;20463;-88
2023/01/07 02:32:36;;;;;;;5.93;4.87;;;;;;;5.14;81.13;95602.09;4954012;29;20468;-88
2023/01/07 02:35:11;;;;;;;7.60;4.80;;;;;;;5.17;80.95;95607.13;4896681;29;20551;-89
2023/01/07 02:37:47;;;;;;;5.40;3.80;;;;;;;5.17;81.39;95609.72;4896892;29;20579;-89
2023/01/07 02:40:20;;;;;;;5.20;4.00;;;;;;;5.14;81.44;95609.88;4897098;29;20956;-89
2023/01/07 02:42:55;;;;;;;5.23;3.97;;;;;;;5.17;81.81;95602.75;4897522;29;21326;-89
2023/01/07 02:45:29;;;;;;;5.80;4.33;;;;;;;5.19;81.89;95600.06;4897736;29;20452;-89
2023/01/07 02:48:00;;;;;;;6.60;4.00;;;;;;;5.22;81.26;95598.19;4898955;29;20486;-88
2023/01/07 02:50:27;;;;;;;11.73;4.20;;;;;;;5.26;80.84;95601.47;4900760;29;20465;-89
2023/01/07 02:52:54;;;;;;;5.07;3.90;;;;;;;5.29;80.70;95607.34;4900857;29;20456;-89
2023/01/07 02:59:02;;;;;;;10.70;5.73;;;;;;;5.07;81.11;95613.72;4900087;29;20475;-88
2023/01/07 03:01:52;;;;;;;12.37;5.10;;;;;;;4.96;80.59;95607.34;4900753;29;20932;-89
2023/01/07 03:04:39;;;;;;;7.53;5.60;;;;;;;4.76;81.14;95610.09;4977471;28;20441;-89
2023/01/07 03:07:24;;;;;;;9.00;5.80;;;;;;;4.77;81.32;95618.75;4976494;28;20566;-89
2023/01/07 03:09:56;;;;;;;8.97;6.10;;;;;;;4.55;81.83;95626.75;5045110;28;20928;-89
2023/01/07 03:12:32;;;;;;;8.40;6.37;;;;;;;4.56;82.24;95618.88;5079287;28;20450;-89
2023/01/07 03:15:07;;;;;;;7.30;6.47;;;;;;;4.02;83.74;95619.78;5097846;28;20837;-89
2023/01/07 03:17:40;;;;;;;8.10;5.37;;;;;;;4.08;83.46;95613.50;5097416;28;20490;-89
2023/01/07 03:20:09;;;;;;;9.55;6.45;;;;;;;4.12;84.04;95618.47;5097056;28;20445;-88
2023/01/07 03:26:03;;;;;;;7.80;5.50;;;;;;;4.21;85.21;95628.41;5096054;28;20484;-89
2023/01/07 03:28:36;;;;;;;8.20;5.63;;;;;;;4.27;84.75;95614.28;5097697;28;20983;-87
2023/01/07 03:31:05;;;;;;;8.97;5.00;;;;;;;4.27;84.82;95615.13;5097762;28;20443;-89
2023/01/07 03:33:40;;;;;;;6.97;4.80;;;;;;;4.31;84.58;95616.63;5097525;28;20486;-89
2023/01/07 03:36:12;;;;;;;11.50;5.27;;;;;;;4.25;85.70;95610.91;5097507;28;20455;-89
2023/01/07 03:38:41;;;;;;;7.70;4.17;;;;;;;4.36;84.98;95619.03;5097231;28;20486;-88
2023/01/07 03:41:08;;;;;;;5.90;4.70;;;;;;;4.42;85.60;95615.31;5097197;28;20462;-88
2023/01/07 03:43:34;;;;;;;7.73;4.57;;;;;;;4.52;84.83;95619.13;5097480;28;20448;-89
2023/01/07 03:46:01;;;;;;;6.67;4.67;;;;;;;4.59;83.58;95617.88;5097716;28;20798;-89
2023/01/07 03:48:28;;;;;;;7.63;5.07;;;;;;;4.62;83.30;95617.72;5097582;28;20210;-89
2023/01/07 03:50:55;;;;;;;7.43;5.07;;;;;;;4.64;83.11;95621.13;5097276;28;20469;-88
2023/01/07 03:53:23;;;;;;;7.30;5.13;;;;;;;4.59;83.30;95633.47;5098339;28;20444;-89
2023/01/07 03:55:50;;;;;;;26.80;13.43;;;;;;;4.50;83.06;95633.94;5097198;28;20474;-88
2023/01/07 03:58:17;;;;;;;17.97;10.57;;;;;;;4.44;82.58;95626.44;5096580;28;20502;-89
2023/01/07 04:00:43;;;;;;;32.30;20.37;;;;;;;4.39;82.41;95631.03;5097449;28;20845;-89
2023/01/07 04:03:11;;;;;;;39.83;23.60;;;;;;;4.40;83.15;95632.72;5097463;28;20470;-89
2023/01/07 04:05:38;;;;;;;58.20;30.10;;;;;;;4.35;82.52;95636.38;5096865;28;20450;-89
2023/01/07 04:08:05;;;;;;;60.60;31.20;;;;;;;4.28;83.08;95647.97;5096860;28;20462;-89
2023/01/07 04:10:33;;;;;;;34.00;19.30;;;;;;;4.25;83.65;95648.13;5097166;28;20460;-89
2023/01/07 04:13:00;;;;;;;35.60;19.97;;;;;;;4.26;83.06;95644.59;5097727;28;20456;-89
2023/01/07 04:15:27;;;;;;;33.23;20.03;;;;;;;4.25;82.70;95648.13;5096527;28;20483;-89
2023/01/07 04:17:54;;;;;;;34.10;20.20;;;;;;;4.30;82.97;95647.91;5096619;28;20863;-89
2023/01/07 04:20:21;;;;;;;30.13;18.97;;;;;;;4.33;83.11;95653.78;5096470;28;20475;-89
2023/01/07 04:22:48;;;;;;;34.20;19.93;;;;;;;4.35;82.78;95654.56;5096839;28;20986;-89
2023/01/07 04:25:15;;;;;;;28.90;19.00;;;;;;;4.38;82.14;95660.53;5096532;28;20450;-89
2023/01/07 04:27:43;;;;;;;22.60;14.33;;;;;;;4.32;83.17;95649.50;5096937;28;20440;-89
2023/01/07 04:30:11;;;;;;;18.90;8.30;;;;;;;4.38;83.09;95652.75;5096181;28;20456;-88
2023/01/07 04:32:38;;;;;;;11.70;6.17;;;;;;;4.33;83.97;95648.59;5096598;28;20543;-89
2023/01/07 04:35:05;;;;;;;7.67;5.47;;;;;;;4.37;83.85;95661.44;5096516;28;20514;-89
2023/01/07 04:37:32;;;;;;;15.47;5.97;;;;;;;4.33;84.40;95648.59;5096181;28;20448;-88
2023/01/07 04:39:59;;;;;;;6.13;5.53;;;;;;;4.32;84.79;95654.69;5095933;28;20476;-89
2023/01/07 04:42:26;;;;;;;8.17;5.50;;;;;;;4.33;84.79;95648.59;5096537;28;20448;-89
2023/01/07 04:44:54;;;;;;;6.37;5.00;;;;;;;4.32;84.59;95649.50;5095876;28;20452;-89
2023/01/07 04:47:21;;;;;;;6.20;5.10;;;;;;;4.24;85.32;95646.44;5096243;28;20797;-89
2023/01/07 04:49:48;;;;;;;8.83;4.27;;;;;;;4.05;87.38;95640.47;5096087;28;20938;-88
2023/01/07 04:52:14;;;;;;;6.80;4.60;;;;;;;3.97;88.22;95642.56;5095550;28;20439;-89
2023/01/07 04:54:41;;;;;;;4.87;4.37;;;;;;;3.92;88.68;95641.94;5096160;28;20444;-89
2023/01/07 04:57:08;;;;;;;7.90;4.90;;;;;;;4.00;89.02;95651.03;5095863;28;20451;-90
2023/01/07 04:59:37;;;;;;;7.10;4.90;;;;;;;4.09;88.51;95657.56;5095227;28;20487;-89
2023/01/07 05:02:05;;;;;;;7.37;4.80;;;;;;;4.14;87.75;95650.41;5095679;28;20471;-88
2023/01/07 05:04:32;;;;;;;9.73;5.60;;;;;;;4.20;87.46;95657.06;5095657;28;20435;-88
2023/01/07 05:06:59;;;;;;;6.30;4.87;;;;;;;4.29;87.54;95657.44;5095527;28;20460;-89
2023/01/07 05:09:26;;;;;;;7.30;4.70;;;;;;;4.30;86.44;95646.13;5094284;28;20459;-88
2023/01/07 05:11:53;;;;;;;10.77;5.83;;;;;;;4.39;86.79;95662.22;5095574;28;20443;-87
2023/01/07 05:14:19;;;;;;;7.90;5.17;;;;;;;4.43;85.55;95664.59;5095506;28;20436;-89
2023/01/07 05:16:46;;;;;;;8.10;5.10;;;;;;;4.47;85.83;95667.88;5095122;28;20428;-88
2023/01/07 05:19:15;;;;;;;6.93;5.40;;;;;;;4.44;86.18;95652.44;5095159;28;20471;-88
2023/01/07 05:21:42;;;;;;;6.17;5.10;;;;;;;4.49;85.21;95658.25;5095210;28;20448;-89
2023/01/07 05:24:10;;;;;;;5.50;5.00;;;;;;;4.45;84.61;95659.31;5095104;28;20459;-91
2023/01/07 05:26:37;;;;;;;8.27;4.37;;;;;;;4.42;85.68;95662.06;5095299;28;20456;-90
2023/01/07 05:29:04;;;;;;;4.20;3.80;;;;;;;4.37;85.03;95669.25;5094948;28;20447;-87
2023/01/07 05:31:31;;;;;;;7.23;5.17;;;;;;;4.34;85.65;95662.44;5094697;28;20444;-88
2023/01/07 05:34:18;;;;;;;6.90;4.50;;;;;;;4.33;85.16;95664.16;5095378;28;20440;-88
2023/01/07 05:36:45;;;;;;;5.53;4.60;;;;;;;4.33;85.83;95663.31;5082445;28;20869;-88
2023/01/07 05:39:12;;;;;;;6.27;4.47;;;;;;;4.32;86.06;95666.84;5094999;28;20490;-88
2023/01/07 05:41:38;;;;;;;5.20;3.73;;;;;;;4.35;85.88;95675.38;5094996;28;20452;-88
2023/01/07 05:44:06;;;;;;;6.80;4.77;;;;;;;4.34;86.46;95670.25;5094859;28;20452;-87
2023/01/07 05:46:32;;;;;;;7.40;5.00;;;;;;;4.42;86.25;95667.25;5094474;28;20452;-86
2023/01/07 05:48:59;;;;;;;5.83;4.57;;;;;;;4.46;86.14;95671.41;5094789;28;20562;-88
2023/01/07 05:51:28;;;;;;;8.90;4.50;;;;;;;4.49;85.15;95666.03;5095392;28;20459;-87
2023/01/07 05:53:55;;;;;;;6.90;4.10;;;;;;;4.45;84.64;95670.56;5095077;28;20848;-88
2023/01/07 05:56:22;;;;;;;5.90;4.30;;;;;;;4.48;84.76;95669.56;5094497;28;20847;-88
2023/01/07 05:58:49;;;;;;;6.63;4.87;;;;;;;4.47;84.77;95671.31;5094266;28;20482;-87
2023/01/07 06:01:15;;;;;;;5.77;5.10;;;;;;;4.48;84.48;95661.75;5094749;28;20448;-87
2023/01/07 06:03:42;;;;;;;13.07;7.37;;;;;;;4.43;85.75;95676.75;5094334;28;20452;-88
2023/01/07 06:06:09;;;;;;;11.03;7.30;;;;;;;4.41;85.23;95673.38;5094120;28;20459;-87
2023/01/07 06:08:38;;;;;;;17.50;9.87;;;;;;;4.35;84.40;95674.53;5094335;28;20448;-87
2023/01/07 06:11:06;;;;;;;28.67;15.73;;;;;;;4.25;83.81;95673.25;5094378;28;20452;-88
2023/01/07 06:13:33;;;;;;;28.00;19.03;;;;;;;4.21;83.65;95677.75;5094200;28;20459;-88
2023/01/07 06:19:31;;;;;;;29.50;18.80;;;;;;;4.06;84.27;95688.88;5094419;28;20508;-88
2023/01/07 06:21:58;;;;;;;29.00;17.23;;;;;;;3.62;85.78;95685.69;5097186;28;20451;-87
2023/01/07 06:24:26;;;;;;;34.80;18.60;;;;;;;3.38;86.71;95690.22;5098606;28;20452;-87
2023/01/07 06:26:53;;;;;;;34.20;19.73;;;;;;;3.56;86.36;95689.41;5098336;28;20498;-88
2023/01/07 06:29:20;;;;;;;27.07;20.03;;;;;;;3.55;86.45;95687.75;5098305;28;20440;-88
2023/01/07 06:31:47;;;;;;;41.80;19.10;;;;;;;3.57;86.23;95690.25;5098547;28;20454;-88
2023/01/07 06:34:14;;;;;;;32.07;19.60;;;;;;;3.64;86.61;95687.31;5098110;28;20517;-87
2023/01/07 06:36:41;;;;;;;29.83;19.93;;;;;;;3.48;86.72;95701.91;5098012;28;20444;-87
2023/01/07 06:52:36;;;;;;;27.70;17.43;;;;;;;3.64;86.97;95699.44;5075388;28;20494;-88
2023/01/07 06:55:06;;;;;;;25.53;14.80;;;;;;;3.70;87.84;95697.41;5076705;28;20817;-88
2023/01/07 06:57:35;;;;;;;20.00;14.40;;;;;;;3.85;88.17;95697.66;5076524;28;20471;-90
2023/01/07 07:00:03;;;;;;;20.10;14.80;;;;;;;3.71;88.42;95698.25;5076233;28;20503;-84
2023/01/07 07:02:30;;;;;;;45.30;21.60;;;;;;;3.84;87.97;95704.59;5076270;28;20440;-88
2023/01/07 07:04:57;;;;;;;35.10;18.57;;;;;;;3.94;88.53;95708.44;5082405;28;20454;-87
2023/01/07 07:07:24;;;;;;;33.25;20.70;;;;;;;4.08;88.46;95713.03;5096443;28;20447;-89
2023/01/07 07:09:52;;;;;;;21.80;13.70;;;;;;;4.15;87.86;95705.78;5097949;28;20300;-86
2023/01/07 07:12:19;;;;;;;26.73;13.17;;;;;;;4.21;87.80;95708.09;5097985;28;20941;-90
2023/01/07 07:14:46;;;;;;;17.50;13.00;;;;;;;4.29;86.24;95712.00;5097319;28;20466;-88
2023/01/07 07:17:13;;;;;;;23.40;13.73;;;;;;;4.36;87.39;95707.38;5097005;28;20448;-90
2023/01/07 07:19:40;;;;;;;20.20;15.20;;;;;;;4.35;87.49;95701.34;5101248;28;20475;-89
2023/01/07 07:22:07;;;;;;;20.40;15.13;;;;;;;4.46;87.25;95707.78;5098072;28;20859;-87
2023/01/07 07:24:33;;;;;;;17.73;14.20;;;;;;;4.68;87.76;95711.03;5096449;28;20443;-85
2023/01/07 07:27:02;;;;;;;27.17;18.27;;;;;;;4.76;88.32;95705.44;5097174;28;20930;-87
2023/01/07 07:29:29;;;;;;;28.88;17.50;;;;;;;4.85;88.17;95711.03;5082251;28;20454;-84
2023/01/07 07:31:56;;;;;;;19.57;14.73;;;;;;;4.89;86.56;95706.50;5076437;28;20221;-89
2023/01/07 07:34:23;;;;;;;23.63;14.13;;;;;;;4.98;86.35;95701.72;5075993;28;20943;-84
2023/01/07 07:36:49;;;;;;;22.63;14.80;;;;;;;5.07;85.78;95697.81;5076154;28;20452;-86
2023/01/07 07:39:17;;;;;;;25.70;16.50;;;;;;;5.14;86.96;95693.13;5076526;28;20480;-90
2023/01/07 07:41:43;;;;;;;22.80;18.47;;;;;;;5.13;85.96;95704.47;5076987;28;20448;-88
2023/01/07 07:44:12;;;;;;;20.93;15.80;;;;;;;4.85;86.77;95703.22;5076786;28;20923;-86
2023/01/07 08:00:08;;;;;;;32.20;16.13;;;;;;;5.22;88.80;95701.41;5077407;28;20487;-86
2023/01/07 08:02:35;;;;;;;32.93;16.30;;;;;;;5.28;87.85;95688.91;5075854;28;20438;-89
2023/01/07 08:05:01;;;;;;;35.30;18.57;;;;;;;5.49;87.62;95702.59;5076221;28;20460;-89
2023/01/07 08:07:28;;;;;;;33.10;16.87;;;;;;;5.47;86.48;95698.38;5076271;28;20453;-89
2023/01/07 08:10:01;;;;;;;26.10;16.10;;;;;;;5.44;86.17;95699.38;5075951;28;20453;-88
2023/01/07 08:12:28;;;;;;;36.47;18.90;;;;;;;5.58;86.01;95701.28;5075793;28;20962;-88
2023/01/07 08:14:54;;;;;;;30.23;18.40;;;;;;;5.51;85.73;95702.50;5075668;28;20450;-88
2023/01/07 08:17:24;;;;;;;52.53;22.80;;;;;;;5.53;86.33;95703.28;5075921;28;20458;-87
2023/01/07 08:19:51;;;;;;;51.20;23.30;;;;;;;5.59;87.03;95703.78;5091595;28;20480;-89
2023/01/07 08:22:18;;;;;;;37.40;20.73;;;;;;;5.74;86.27;95702.13;5096207;28;20481;-89
2023/01/07 08:24:45;;;;;;;35.23;19.77;;;;;;;5.86;86.42;95700.66;5096419;28;20448;-88
2023/01/07 08:27:11;;;;;;;35.37;20.03;;;;;;;5.96;86.13;95706.25;5077344;28;20443;-88
2023/01/07 08:33:06;;;;;;;27.37;16.13;;;;;;;6.32;86.01;95703.38;5095615;28;21000;-88
2023/01/07 08:35:34;;;;;;;26.80;13.47;;;;;;;6.37;84.99;95696.19;5095380;28;20464;-86
2023/01/07 08:38:03;;;;;;;25.53;14.60;;;;;;;6.47;85.48;95705.16;5094909;28;20440;-87
2023/01/07 08:40:30;;;;;;;22.57;12.20;;;;;;;6.56;85.01;95695.97;5081711;28;20542;-87
2023/01/07 08:43:01;;;;;;;19.27;14.13;;;;;;;6.57;84.75;95697.66;5095441;28;20454;-86
2023/01/07 08:45:28;;;;;;;24.30;14.80;;;;;;;6.66;85.04;95703.22;5076116;28;20840;-87
2023/01/07 08:47:56;;;;;;;16.40;9.60;;;;;;;6.60;84.42;95702.69;5075900;28;20470;-85
2023/01/07 08:50:25;;;;;;;20.10;11.43;;;;;;;6.68;84.97;95695.31;5087813;28;20458;-85
2023/01/07 08:52:52;;;;;;;19.43;11.37;;;;;;;6.51;84.79;95698.84;5075362;28;20415;-87
2023/01/07 08:55:19;;;;;;;20.37;12.43;;;;;;;6.36;85.73;95694.47;5076006;28;20928;-90
2023/01/07 08:57:46;;;;;;;28.43;16.97;;;;;;;6.52;85.83;95685.72;5075559;28;20795;-89
2023/01/07 09:00:14;;;;;;;16.33;8.23;;;;;;;6.71;84.41;95690.75;5075502;28;20585;-89
2023/01/07 09:02:41;;;;;;;14.77;8.30;;;;;;;6.82;83.53;95687.53;5076365;28;20507;-90
2023/01/07 09:05:09;;;;;;;20.10;10.63;;;;;;;6.87;83.28;95679.44;5083049;28;20462;-87
2023/01/07 09:07:43;;;;;;;16.97;9.70;;;;;;;6.72;82.89;95679.41;5093030;28;20430;-88
2023/01/07 09:10:10;;;;;;;18.43;10.17;;;;;;;6.66;83.09;95678.91;5086220;28;20464;-87
2023/01/07 09:12:37;;;;;;;20.43;10.53;;;;;;;6.71;83.69;95672.50;5090820;28;20444;-87
2023/01/07 09:15:05;;;;;;;18.97;10.97;;;;;;;6.92;83.36;95673.00;5090987;28;20978;-88
2023/01/07 09:17:32;;;;;;;23.30;11.93;;;;;;;7.04;83.19;95668.88;5095443;28;20540;-87
2023/01/07 09:20:02;;;;;;;19.80;9.83;;;;;;;7.21;82.34;95665.25;5095401;28;20474;-88
2023/01/07 09:22:29;;;;;;;15.33;9.00;;;;;;;7.32;81.67;95661.09;5095275;28;20445;-88
2023/01/07 09:24:57;;;;;;;15.80;9.83;;;;;;;7.41;80.84;95657.91;5095342;28;20448;-88
2023/01/07 09:27:25;;;;;;;14.80;9.97;;;;;;;7.56;80.77;95658.78;5094693;28;20459;-88
2023/01/07 09:29:52;;;;;;;9.20;7.40;;;;;;;7.56;79.52;95650.09;5095141;28;20807;-88
2023/01/07 09:32:19;;;;;;;10.87;8.00;;;;;;;7.57;79.96;95647.41;5095167;28;20455;-87
2023/01/07 09:34:49;;;;;;;11.53;8.80;;;;;;;7.64;79.60;95651.31;5094728;28;20843;-88
2023/01/07 09:37:16;;;;;;;14.57;7.80;;;;;;;7.70;79.54;95627.41;5095915;28;20512;-88
2023/01/07 09:39:43;;;;;;;19.00;10.17;;;;;;;7.84;80.23;95623.97;5096521;28;20489;-87
2023/01/07 09:42:28;;;;;;;12.50;8.97;;;;;;;8.00;79.13;95627.28;5097149;28;20505;-89
2023/01/07 09:45:05;;;;;;;19.83;10.80;;;;;;;8.11;78.39;95628.41;5094601;28;20455;-88
2023/01/07 09:47:36;;;;;;;14.93;10.60;;;;;;;8.27;78.48;95613.41;5095434;28;20459;-87
2023/01/07 09:50:11;;;;;;;17.27;9.40;;;;;;;8.42;77.63;95604.63;5094859;28;20475;-86
2023/01/07 09:52:43;;;;;;;14.80;7.67;;;;;;;8.39;76.22;95610.03;5093962;28;20890;-88
2023/01/07 09:55:16;;;;;;;16.30;9.37;;;;;;;8.55;77.00;95602.88;5094646;28;20447;-88
2023/01/07 09:57:45;;;;;;;16.80;10.47;;;;;;;8.76;76.29;95595.38;5094491;28;21068;-88
2023/01/07 10:00:17;;;;;;;16.33;9.90;;;;;;;8.90;76.27;95587.44;5094699;28;20480;-88
2023/01/07 10:02:59;;;;;;;19.67;10.03;;;;;;;8.96;74.50;95594.03;5094146;28;20451;-87
2023/01/07 10:05:34;;;;;;;14.10;10.60;;;;;;;9.10;75.09;95582.66;5093815;28;20460;-88
2023/01/07 10:08:11;;;;;;;16.97;10.10;;;;;;;9.24;73.73;95580.75;5094023;28;20446;-88
2023/01/07 10:10:44;;;;;;;14.00;9.43;;;;;;;9.35;73.93;95580.03;5093697;28;20528;-89
2023/01/07 10:13:35;;;;;;;20.30;10.33;;;;;;;9.41;73.32;95570.91;5093631;28;20455;-89
2023/01/07 10:16:06;;;;;;;25.33;10.20;;;;;;;9.44;72.72;95565.47;5094032;28;20448;-87
2023/01/07 10:18:45;;;;;;;16.73;10.77;;;;;;;9.53;73.25;95560.41;5094129;28;20946;-88
2023/01/07 10:21:18;;;;;;;18.17;11.60;;;;;;;9.64;73.10;95562.28;5093650;28;20483;-88
2023/01/07 10:23:49;;;;;;;15.90;11.80;;;;;;;9.73;71.59;95556.38;5094748;28;20449;-88
2023/01/07 10:26:29;;;;;;;18.57;12.30;;;;;;;9.73;72.81;95552.94;5094000;28;20444;-88
2023/01/07 10:29:02;;;;;;;21.23;12.10;;;;;;;9.74;71.16;95552.81;5094026;28;20453;-88
2023/01/07 10:31:30;;;;;;;22.20;12.37;;;;;;;9.84;71.43;95553.88;5094794;28;20452;-87
2023/01/07 10:33:57;;;;;;;23.90;13.87;;;;;;;9.87;71.91;95539.69;5094505;28;20938;-87
2023/01/07 10:36:27;;;;;;;19.03;13.03;;;;;;;10.01;71.40;95538.69;5094234;28;20443;-87
2023/01/07 10:39:03;;;;;;;19.47;13.00;;;;;;;10.06;71.11;95537.41;5093660;28;20456;-87
2023/01/07 10:41:40;;;;;;;19.57;13.43;;;;;;;10.11;71.61;95531.81;5093549;28;20483;-86
2023/01/07 10:44:49;;;;;;;24.70;13.27;;;;;;;10.19;71.59;95532.97;5093825;28;20491;-88
2023/01/07 10:47:28;;;;;;;21.93;13.57;;;;;;;10.22;71.29;95521.44;5093523;28;20468;-87
2023/01/07 10:50:19;;;;;;;24.33;13.73;;;;;;;10.26;71.07;95512.41;5093228;28;20454;-88
2023/01/07 10:52:59;;;;;;;36.87;15.30;;;;;;;10.37;70.41;95508.97;5093571;28;20506;-88
2023/01/07 10:55:44;;;;;;;22.77;14.30;;;;;;;10.43;70.38;95506.75;5094000;28;20449;-88
2023/01/07 10:58:12;;;;;;;19.70;13.33;;;;;;;10.50;70.27;95507.97;5093556;28;20865;-87
2023/01/07 11:00:41;;;;;;;18.37;13.73;;;;;;;10.46;68.40;95498.66;5092997;28;20491;-87
2023/01/07 11:03:22;;;;;;;28.30;14.47;;;;;;;10.55;68.99;95491.88;5093231;28;20454;-85
2023/01/07 11:05:57;;;;;;;20.70;15.20;;;;;;;10.49;69.49;95494.94;5092560;28;20448;-85
2023/01/07 11:08:29;;;;;;;18.93;13.20;;;;;;;10.49;69.17;95481.84;5094258;28;20881;-85
2023/01/07 11:10:58;;;;;;;23.90;14.17;;;;;;;10.46;69.45;95475.03;5096662;28;20444;-85
2023/01/07 11:13:28;;;;;;;32.47;15.30;;;;;;;10.53;69.01;95478.84;5096347;28;20456;-87
2023/01/07 11:16:00;;;;;;;22.80;14.27;;;;;;;10.57;69.21;95476.84;5097009;28;20457;-85
2023/01/07 11:18:34;;;;;;;22.80;14.00;;;;;;;10.59;68.84;95476.72;5097398;28;20454;-89
2023/01/07 11:21:01;;;;;;;25.87;13.50;;;;;;;10.65;68.88;95466.59;5097386;28;20478;-88
2023/01/07 11:23:38;;;;;;;17.57;12.73;;;;;;;10.77;68.39;95459.59;5097411;28;20499;-87
2023/01/07 11:26:23;;;;;;;19.10;12.40;;;;;;;10.83;68.23;95454.69;5097994;28;20451;-87
2023/01/07 11:32:24;;;;;;;25.93;16.10;;;;;;;10.84;67.91;95445.88;5096980;28;20410;-86
2023/01/07 11:34:59;;;;;;;21.13;14.30;;;;;;;10.92;68.23;95447.91;5097651;28;20536;-87
2023/01/07 11:37:38;;;;;;;16.87;13.30;;;;;;;10.99;68.93;95446.50;5097211;28;20449;-88
2023/01/07 11:40:19;;;;;;;21.10;13.90;;;;;;;11.06;67.99;95446.84;5097055;28;20911;-90
2023/01/07 11:42:51;;;;;;;22.80;13.90;;;;;;;11.15;70.99;95435.59;5096934;28;20463;-87
2023/01/07 11:45:21;;;;;;;20.53;14.53;;;;;;;11.24;67.29;95434.03;5096499;28;20449;-91
2023/01/07 11:47:59;;;;;;;25.23;13.10;;;;;;;11.28;67.22;95425.00;5096966;28;20465;-91
2023/01/07 11:50:35;;;;;;;30.43;16.33;;;;;;;11.34;66.69;95437.63;5097517;28;20531;-90
2023/01/07 11:53:11;;;;;;;21.63;14.13;;;;;;;11.38;66.11;95423.28;5097523;28;20433;-87
2023/01/07 12:03:02;;;;;;;21.97;14.60;;;;;;;11.55;65.77;95406.16;5083190;28;20523;-85
2023/01/07 12:05:30;;;;;;;23.48;15.40;;;;;;;11.62;65.63;95400.31;5095366;28;20470;-85
2023/01/07 12:07:57;;;;;;;23.47;14.37;;;;;;;11.73;65.53;95396.81;5096539;28;20283;-84
2023/01/07 12:10:33;;;;;;;25.27;17.20;;;;;;;11.78;66.06;95398.13;5096451;28;20439;-85
2023/01/07 12:13:22;;;;;;;27.30;15.70;;;;;;;11.83;65.75;95391.66;5096656;28;20462;-89
2023/01/07 12:15:53;;;;;;;23.03;15.60;;;;;;;11.84;65.90;95382.81;5096535;28;20466;-86
2023/01/07 12:18:37;;;;;;;31.47;16.60;;;;;;;11.85;65.46;95384.47;5096050;28;20992;-86
2023/01/07 12:21:25;;;;;;;41.17;15.40;;;;;;;11.89;64.66;95385.91;5096139;28;21042;-87
2023/01/07 12:24:04;;;;;;;23.10;14.77;;;;;;;11.85;64.83;95379.22;5096301;28;20509;-90
2023/01/07 12:26:41;;;;;;;28.23;16.60;;;;;;;11.72;64.75;95384.63;5097093;28;20959;-86
2023/01/07 12:29:17;;;;;;;21.60;14.80;;;;;;;11.77;65.36;95371.94;5095952;28;20452;-86
2023/01/07 12:32:00;;;;;;;22.90;14.20;;;;;;;11.65;65.09;95371.16;5096752;28;20423;-85
2023/01/07 12:34:43;;;;;;;18.70;13.30;;;;;;;11.63;65.56;95367.81;5095423;28;20438;-85
2023/01/07 12:37:18;;;;;;;19.20;12.90;;;;;;;11.76;65.88;95365.00;5096338;28;20443;-85
2023/01/07 12:43:14;;;;;;;17.80;12.50;;;;;;;11.87;64.44;95364.16;5094365;28;20428;-85
2023/01/07 12:45:46;;;;;;;18.27;14.20;;;;;;;11.85;63.77;95363.44;5095988;28;20836;-86
2023/01/07 12:48:23;;;;;;;18.77;12.13;;;;;;;11.79;63.95;95351.63;5095787;28;20839;-84
2023/01/07 12:50:54;;;;;;;14.50;10.40;;;;;;;11.84;64.06;95361.75;5096590;28;20534;-88
2023/01/07 12:53:32;;;;;;;22.33;12.00;;;;;;;11.84;64.45;95362.59;5096569;28;20451;-86
2023/01/07 12:56:05;;;;;;;16.23;9.77;;;;;;;11.88;64.07;95365.84;5097088;28;20434;-86
2023/01/07 12:58:45;;;;;;;16.07;10.23;;;;;;;11.90;63.89;95362.13;5096310;28;20455;-85